Victoria, TX (77901)

5:48 AM CDT on July 05, 2015 (GMT -0500)
Inwood Terrace | | Change Station
CLOSE
Current Station
Personal Weather Station
Location: Victoria, TX
Elevation: 128 ft
Nearby Weather Stations
Active Advisory: Flood Warning

Elev 128 ft 28.83 °N, 96.97 °W | Updated 13 minutes ago

Clear
Clear
75.6 °F
Feels Like 74 °F
N
0.0
Wind Variable Wind from ESE

Today
High -- | Low -- °F
--% Chance of Precip.
Yesterday
High -- | Low -- °F
Precip. -- in
6:34 AM 8:30 PM
Waning Gibbous, 86% visible
Pressure 30.01 in
Visibility 10.0 miles
Clouds Clear
Heat Index 74 °F
Dew Point 75 °F
Humidity 99%
Rainfall 0.00 in
Snow Depth Not available.
UV 0 out of 12
Pollen 3.60 out of 12
Air Quality Not available.
Flu Activity Not available.
METAR KVCT 050951Z AUTO 13003KT 10SM CLR 24/24 A3002 RMK AO2 SLP163 T02390239 $

More Conditions Fewer Conditions

Pressure 30.01 in
Visibility 10.0 miles
Clouds Clear
Heat Index 74 °F
Dew Point 75 °F
Humidity 99%
Rainfall 0.00 in
Snow Depth Not available.
UV 0 out of 12
Pollen 3.60 out of 12
Air Quality Not available.
Flu Activity Not available.
METAR KVCT 050951Z AUTO 13003KT 10SM CLR 24/24 A3002 RMK AO2 SLP163 T02390239 $

More Conditions Fewer Conditions

10-Day Weather Forecast

×

Almanac

Astronomy

Jul. 05, 2015 Rise Set
Actual Time
Civil Twilight
Nautical Twilight
Astronomical Twilight
Moon
Length of Visible Light
Length of Day
Tomorrow will be .
, % of the Moon is Illuminated

Today's Extremes

State Highs State Lows

Community

WunderPhotos

Upload Photos

1,835,229 photos uploaded!

WunderBlogs® & News

Nearby

Air Quality

  Air Quality AQ Index Pollutant
Not available.

Snow Depth

Station Depth Elevation

Earthquake Activity

City Distance Mag. Time & Date
Minimum magnitude displayed is 2.5.

Coastal Water Temperatures

Place Temperature

Stations

Nearby Weather Stations

Station Location Temp. Windchill Dew Point Humidity Wind Precip. Elev Updated Type
                   
Flood Warning
Statement as of 9:04 PM CDT on July 04, 2015

The Flood Warning continues for the Guadalupe River near Bloomington.
* Until Monday morning... or until the warning is cancelled.
* At 8:00 PM Saturday the stage was 22.5 feet.
* Minor flooding is occurring and minor flooding is forecast.
* Flood stage is 20.0 feet.
* Forecast: the river will continue to fall to below flood stage by
tomorrow evening.

* At 24.0 feet, moderate lowland flooding occurs, with the river
reaching well into the flood plain. Any oil tank batteries, pump
jacks, and secondary roads near the river may be flooded.



Below are the latest river stages and stage forecasts:


                      fld latest forecast 6 am lst
location stg stg day time sun Mon Tue Wed Thu

Guadalupe River
Bloomington 20 22.5 Sat 08 PM 21.7 18.3 16.1 15.2 14.8




Lat... Lon 2869 9704 2869 9698 2867 9695 2857 9688
      2845 9680 2843 9685




90